createdAt,value
2022-10-19T00:01:02.670Z,0.73
2022-10-19T00:03:32.827Z,0.70
2022-10-19T00:06:01.453Z,0.70
2022-10-19T00:08:30.013Z,0.88
2022-10-19T00:10:58.665Z,0.60
2022-10-19T00:13:27.240Z,0.73
2022-10-19T00:15:55.793Z,0.60
2022-10-19T00:18:24.367Z,0.50
2022-10-19T00:20:54.343Z,0.77
2022-10-19T00:23:23.229Z,0.47
2022-10-19T00:25:57.937Z,0.45
2022-10-19T00:28:26.758Z,0.50
2022-10-19T00:30:55.461Z,0.40
2022-10-19T00:33:24.034Z,0.50
2022-10-19T00:35:54.766Z,0.50
2022-10-19T00:38:23.961Z,0.60
2022-10-19T00:40:52.607Z,0.60
2022-10-19T00:43:22.965Z,0.60
2022-10-19T00:45:52.108Z,0.57
2022-10-19T00:48:23.133Z,0.50
2022-10-19T00:50:52.741Z,0.75
2022-10-19T00:53:23.084Z,0.50
2022-10-19T00:55:51.715Z,0.70
2022-10-19T00:58:20.317Z,0.60
2022-10-19T01:00:49.024Z,0.70
2022-10-19T01:03:17.735Z,0.60
2022-10-19T01:05:46.366Z,0.55
2022-10-19T01:08:15.629Z,0.60
2022-10-19T01:10:48.569Z,0.70
2022-10-19T01:13:23.462Z,0.57
2022-10-19T01:15:55.651Z,0.77
2022-10-19T01:18:28.010Z,0.80
2022-10-19T01:21:05.245Z,0.47
2022-10-19T01:24:03.929Z,0.65
2022-10-19T01:26:41.562Z,0.50
2022-10-19T01:29:16.156Z,1.13
2022-10-19T01:31:48.772Z,0.50
2022-10-19T01:34:21.001Z,0.63
2022-10-19T01:36:56.990Z,0.40
2022-10-19T01:39:28.041Z,0.50
2022-10-19T01:41:59.887Z,0.63
2022-10-19T01:44:30.885Z,0.60
2022-10-19T01:47:02.865Z,0.60
2022-10-19T01:49:34.497Z,0.50
2022-10-19T01:52:06.004Z,0.50
2022-10-19T01:54:37.064Z,0.50
2022-10-19T01:57:07.651Z,0.40
2022-10-19T01:59:37.137Z,0.50
2022-10-19T02:02:08.832Z,0.50
2022-10-19T02:04:37.852Z,0.50
2022-10-19T02:07:07.966Z,0.50
2022-10-19T02:09:37.039Z,0.38
2022-10-19T02:12:07.937Z,0.60
2022-10-19T02:14:38.728Z,0.50
2022-10-19T02:17:10.101Z,0.57
2022-10-19T02:19:38.727Z,0.60
2022-10-19T02:22:08.017Z,0.93
2022-10-19T02:24:36.573Z,0.60
2022-10-19T02:27:05.926Z,0.50
2022-10-19T02:29:35.028Z,0.52
2022-10-19T02:32:03.898Z,0.57
2022-10-19T02:34:34.180Z,0.50
2022-10-19T02:37:02.784Z,0.40
2022-10-19T02:39:31.396Z,0.40
2022-10-19T02:42:02.764Z,0.65
2022-10-19T02:44:33.336Z,0.50
2022-10-19T02:47:04.097Z,0.70
2022-10-19T02:49:36.173Z,0.50
2022-10-19T02:52:05.604Z,0.50
2022-10-19T02:54:34.300Z,0.60
2022-10-19T02:57:02.964Z,0.40
2022-10-19T02:59:31.560Z,0.50
2022-10-19T03:02:00.131Z,0.50
2022-10-19T03:04:28.743Z,0.60
2022-10-19T03:06:58.664Z,0.55
2022-10-19T03:09:27.242Z,0.60
2022-10-19T03:11:57.144Z,0.50
2022-10-19T03:14:25.767Z,0.50
2022-10-19T03:16:54.367Z,0.50
2022-10-19T03:19:22.940Z,0.50
2022-10-19T03:21:51.680Z,0.60
2022-10-19T03:24:21.620Z,0.52
2022-10-19T03:26:50.357Z,0.60
2022-10-19T03:29:18.944Z,0.50
2022-10-19T03:31:47.512Z,0.60
2022-10-19T03:34:16.089Z,0.60
2022-10-19T03:36:44.683Z,0.57
2022-10-19T03:39:14.252Z,0.82
2022-10-19T03:41:44.272Z,0.70
2022-10-19T03:44:13.390Z,0.70
2022-10-19T03:46:42.205Z,0.60
2022-10-19T03:49:10.857Z,0.50
2022-10-19T03:51:39.455Z,0.50
2022-10-19T03:54:09.093Z,0.70
2022-10-19T03:56:38.091Z,0.50
2022-10-19T03:59:08.384Z,0.73
2022-10-19T04:01:38.019Z,0.40
2022-10-19T04:04:07.812Z,0.50
2022-10-19T04:06:37.027Z,0.60
2022-10-19T04:09:06.337Z,0.40
2022-10-19T04:11:35.850Z,0.68
2022-10-19T04:14:04.578Z,0.63
2022-10-19T04:16:35.101Z,0.60
2022-10-19T04:19:03.757Z,0.88
2022-10-19T04:21:33.041Z,0.70
2022-10-19T04:24:02.469Z,0.57
2022-10-19T04:26:31.201Z,0.63
2022-10-19T04:28:59.963Z,0.73
2022-10-19T04:31:28.760Z,0.50
2022-10-19T04:33:58.917Z,0.52
2022-10-19T04:36:27.548Z,0.60
2022-10-19T04:38:56.100Z,0.88
2022-10-19T04:41:24.917Z,0.80
2022-10-19T04:43:56.807Z,0.80
2022-10-19T04:46:25.905Z,0.60
2022-10-19T04:48:54.605Z,0.60
2022-10-19T04:51:24.876Z,0.70
2022-10-19T04:53:55.604Z,0.60
2022-10-19T04:56:27.686Z,0.70
2022-10-19T04:58:57.630Z,0.70
2022-10-19T05:01:27.040Z,0.60
2022-10-19T05:06:27.571Z,0.80
2022-10-19T05:08:56.331Z,0.70
2022-10-19T05:11:24.899Z,0.60
2022-10-19T05:13:53.719Z,0.70
2022-10-19T05:16:23.292Z,0.77
2022-10-19T05:18:51.952Z,0.90
2022-10-19T05:21:21.905Z,0.90
2022-10-19T05:23:54.364Z,0.52
2022-10-19T05:26:23.643Z,0.68
2022-10-19T05:28:56.326Z,0.50
2022-10-19T05:31:26.287Z,0.90
2022-10-19T05:33:56.309Z,0.50
2022-10-19T05:36:26.327Z,0.70
2022-10-19T05:38:57.331Z,0.82
2022-10-19T05:41:26.739Z,0.73
2022-10-19T05:43:56.101Z,0.70
2022-10-19T05:46:25.152Z,0.73
2022-10-19T05:48:54.186Z,0.50
2022-10-19T05:51:23.529Z,0.75
2022-10-19T05:53:52.302Z,0.60
2022-10-19T05:56:23.948Z,0.68
2022-10-19T05:58:52.976Z,0.80
2022-10-19T06:01:22.144Z,0.68
2022-10-19T06:03:53.276Z,0.60
2022-10-19T06:06:21.844Z,0.70
2022-10-19T06:08:50.865Z,0.70
2022-10-19T06:11:20.564Z,0.77
2022-10-19T06:13:51.440Z,0.70
2022-10-19T06:16:20.651Z,0.50
2022-10-19T06:18:49.225Z,0.80
2022-10-19T06:21:18.968Z,0.50
2022-10-19T06:23:51.504Z,0.63
2022-10-19T06:26:20.049Z,0.65
2022-10-19T06:28:50.824Z,0.60
2022-10-19T06:31:19.713Z,0.70
2022-10-19T06:33:49.483Z,0.50
2022-10-19T06:36:19.711Z,0.80
2022-10-19T06:38:48.563Z,1.08
2022-10-19T06:41:17.132Z,0.90
2022-10-19T06:43:45.831Z,0.60
2022-10-19T06:46:20.345Z,0.60
2022-10-19T06:48:52.501Z,0.63
2022-10-19T06:51:21.377Z,0.70
2022-10-19T06:53:54.303Z,1.20
2022-10-19T06:56:25.710Z,0.60
2022-10-19T06:58:54.323Z,0.80
2022-10-19T07:01:24.593Z,0.65
2022-10-19T07:03:53.866Z,0.70
2022-10-19T07:06:22.654Z,0.60
2022-10-19T07:08:51.281Z,0.70
2022-10-19T07:11:22.342Z,0.70
2022-10-19T07:13:51.360Z,0.68
2022-10-19T07:16:21.497Z,0.65
2022-10-19T07:18:52.921Z,0.80
2022-10-19T07:21:22.409Z,0.70
2022-10-19T07:23:51.005Z,0.52
2022-10-19T07:26:21.439Z,0.57
2022-10-19T07:28:50.411Z,0.60
2022-10-19T07:31:20.292Z,0.60
2022-10-19T07:33:49.329Z,1.10
2022-10-19T07:36:19.305Z,0.60
2022-10-19T07:38:47.895Z,0.60
2022-10-19T07:41:17.303Z,0.60
2022-10-19T07:43:46.654Z,0.60
2022-10-19T07:46:16.874Z,0.60
2022-10-19T07:48:45.886Z,0.60
2022-10-19T07:51:15.459Z,0.63
2022-10-19T07:53:45.587Z,0.57
2022-10-19T07:56:15.342Z,0.70
2022-10-19T07:58:44.056Z,0.75
2022-10-19T08:01:13.931Z,0.68
2022-10-19T08:04:31.717Z,0.50
2022-10-19T08:06:31.684Z,0.60
2022-10-19T08:09:01.976Z,0.77
2022-10-19T08:11:32.555Z,0.60
2022-10-19T08:14:03.014Z,0.60
2022-10-19T08:16:33.799Z,0.63
2022-10-19T08:19:03.289Z,0.50
2022-10-19T08:21:32.433Z,0.50
2022-10-19T08:24:02.555Z,0.40
2022-10-19T08:26:31.889Z,0.63
2022-10-19T08:29:03.292Z,0.65
2022-10-19T08:31:32.077Z,0.50
2022-10-19T08:34:01.017Z,0.60
2022-10-19T08:36:31.333Z,0.90
2022-10-19T08:39:00.329Z,0.52
2022-10-19T08:41:34.639Z,0.70
2022-10-19T08:44:27.372Z,0.52
2022-10-19T08:47:01.445Z,1.00
2022-10-19T08:49:32.117Z,0.77
2022-10-19T08:52:01.672Z,1.02
2022-10-19T08:54:34.475Z,0.65
2022-10-19T08:57:11.493Z,0.60
2022-10-19T08:59:42.444Z,0.70
2022-10-19T09:02:15.777Z,0.50
2022-10-19T09:04:46.899Z,0.75
2022-10-19T09:07:25.232Z,0.93
2022-10-19T09:09:56.788Z,0.93
2022-10-19T09:12:34.006Z,0.63
2022-10-19T09:15:04.468Z,0.70
2022-10-19T09:17:33.397Z,0.50
2022-10-19T09:20:12.442Z,0.70
2022-10-19T09:22:41.533Z,0.73
2022-10-19T09:25:14.978Z,0.85
2022-10-19T09:27:45.822Z,0.65
2022-10-19T09:30:19.002Z,0.60
2022-10-19T09:32:48.108Z,0.45
2022-10-19T09:35:21.550Z,0.55
2022-10-19T09:37:51.212Z,0.52
2022-10-19T09:40:21.449Z,0.70
2022-10-19T09:42:57.116Z,0.63
2022-10-19T09:45:34.234Z,0.50
2022-10-19T09:48:07.160Z,0.60
2022-10-19T09:50:44.477Z,0.50
2022-10-19T09:53:19.303Z,0.55
2022-10-19T09:55:50.139Z,0.68
2022-10-19T09:58:20.719Z,0.50
2022-10-19T10:00:51.224Z,1.10
2022-10-19T10:03:25.263Z,0.50
2022-10-19T10:05:53.882Z,0.65
2022-10-19T10:08:25.697Z,0.70
2022-10-19T10:10:59.868Z,0.80
2022-10-19T10:13:29.928Z,0.60
2022-10-19T10:15:59.319Z,0.73
2022-10-19T10:18:28.328Z,0.40
2022-10-19T10:21:03.147Z,0.75
2022-10-19T10:23:36.378Z,0.68
2022-10-19T10:26:06.209Z,0.60
2022-10-19T10:28:47.821Z,0.77
2022-10-19T10:31:16.519Z,0.50
2022-10-19T10:33:45.863Z,0.55
2022-10-19T10:36:15.011Z,0.63
2022-10-19T10:38:45.538Z,0.57
2022-10-19T10:41:16.205Z,0.80
2022-10-19T10:43:53.278Z,0.73
2022-10-19T10:46:23.817Z,0.50
2022-10-19T10:48:57.662Z,0.50
2022-10-19T10:51:29.997Z,0.75
2022-10-19T10:54:08.770Z,0.57
2022-10-19T10:56:40.629Z,0.60
2022-10-19T10:59:14.920Z,0.43
2022-10-19T11:01:44.350Z,0.45
2022-10-19T11:04:15.240Z,0.60
2022-10-19T11:06:46.208Z,0.60
2022-10-19T11:09:17.771Z,0.80
2022-10-19T11:11:47.864Z,0.50
2022-10-19T11:14:24.487Z,0.57
2022-10-19T11:16:54.328Z,0.50
2022-10-19T11:19:24.679Z,0.50
2022-10-19T11:21:56.619Z,0.57
2022-10-19T11:27:04.771Z,0.50
2022-10-19T11:29:44.728Z,0.60
2022-10-19T11:32:17.351Z,0.40
2022-10-19T11:34:56.110Z,0.65
2022-10-19T11:37:28.061Z,0.60
2022-10-19T11:40:01.314Z,0.50
2022-10-19T11:42:37.526Z,0.50
2022-10-19T11:45:15.005Z,0.50
2022-10-19T11:47:56.073Z,0.50
2022-10-19T11:50:32.741Z,0.40
2022-10-19T11:53:04.140Z,0.70
2022-10-19T11:55:37.604Z,0.50
2022-10-19T11:58:10.017Z,0.70
2022-10-19T12:00:43.078Z,0.50
2022-10-19T12:03:31.148Z,0.50
2022-10-19T12:06:09.346Z,0.52
2022-10-19T12:08:43.943Z,0.45
2022-10-19T12:11:19.812Z,0.65
2022-10-19T12:13:50.371Z,0.70
2022-10-19T12:16:22.417Z,0.70
2022-10-19T12:18:52.667Z,0.70
2022-10-19T12:21:24.901Z,0.40
2022-10-19T12:23:54.045Z,0.55
2022-10-19T12:26:24.054Z,0.50
2022-10-19T12:28:54.721Z,0.40
2022-10-19T12:31:25.582Z,0.50
2022-10-19T12:33:58.248Z,0.55
2022-10-19T12:36:37.681Z,0.60
2022-10-19T12:39:09.885Z,0.40
2022-10-19T12:41:41.632Z,0.73
2022-10-19T12:44:15.359Z,0.40
2022-10-19T12:46:49.872Z,0.40
2022-10-19T12:49:38.485Z,0.77
2022-10-19T12:52:08.955Z,0.40
2022-10-19T12:54:38.676Z,0.50
2022-10-19T12:57:23.493Z,0.50
2022-10-19T13:00:00.765Z,0.50
2022-10-19T13:05:00.209Z,0.45
2022-10-19T13:07:29.199Z,0.40
2022-10-19T13:10:01.966Z,0.47
2022-10-19T13:12:57.568Z,0.45
2022-10-19T13:15:59.294Z,0.40
2022-10-19T13:18:46.551Z,0.40
2022-10-19T13:21:36.515Z,0.50
2022-10-19T13:24:20.029Z,0.50
2022-10-19T13:26:48.594Z,0.60
2022-10-19T13:29:26.796Z,0.40
2022-10-19T13:31:55.428Z,0.50
2022-10-19T13:34:26.125Z,0.43
2022-10-19T13:37:03.961Z,0.40
2022-10-19T13:39:32.651Z,0.60
2022-10-19T13:42:01.230Z,0.50
2022-10-19T13:44:34.021Z,0.50
2022-10-19T13:47:13.265Z,0.95
2022-10-19T13:49:49.975Z,0.40
2022-10-19T13:52:39.603Z,0.68
2022-10-19T13:55:26.114Z,0.40
2022-10-19T13:58:06.563Z,0.50
2022-10-19T14:00:37.872Z,0.50
2022-10-19T14:03:33.216Z,0.40
2022-10-19T14:06:09.680Z,0.40
2022-10-19T14:08:57.031Z,0.40
2022-10-19T14:11:28.224Z,0.40
2022-10-19T14:14:14.809Z,0.70
2022-10-19T14:16:50.854Z,0.40
2022-10-19T14:19:27.838Z,0.45
2022-10-19T14:21:57.520Z,0.63
2022-10-19T14:24:30.409Z,0.55
2022-10-19T14:26:59.343Z,1.17
2022-10-19T14:29:29.260Z,0.40
2022-10-19T14:32:00.544Z,0.47
2022-10-19T14:34:29.177Z,0.40
2022-10-19T14:36:57.854Z,0.35
2022-10-19T14:39:29.537Z,0.40
2022-10-19T14:42:00.442Z,0.70
2022-10-19T14:44:41.103Z,0.40
2022-10-19T14:47:20.514Z,0.50
2022-10-19T14:49:49.502Z,0.52
2022-10-19T14:52:20.005Z,0.50
2022-10-19T14:54:50.012Z,0.45
2022-10-19T14:57:23.561Z,0.50
2022-10-19T14:59:54.791Z,0.40
2022-10-19T15:02:24.764Z,0.50
2022-10-19T15:04:54.537Z,0.50
2022-10-19T15:07:25.004Z,0.50
2022-10-19T15:09:55.637Z,0.60
2022-10-19T15:12:27.677Z,0.50
2022-10-19T15:14:57.724Z,0.52
2022-10-19T15:17:27.741Z,0.60
2022-10-19T15:19:58.432Z,0.60
2022-10-19T15:22:38.691Z,0.70
2022-10-19T15:25:25.121Z,0.50
2022-10-19T15:27:54.344Z,0.70
2022-10-19T15:30:29.323Z,0.77
2022-10-19T15:33:09.317Z,0.80
2022-10-19T15:35:38.920Z,0.80
2022-10-19T15:38:09.988Z,0.55
2022-10-19T15:40:39.908Z,0.90
2022-10-19T15:43:37.625Z,0.85
2022-10-19T15:46:09.248Z,0.68
2022-10-19T15:48:55.770Z,0.50
2022-10-19T15:51:48.433Z,0.55
2022-10-19T15:54:17.692Z,0.88
2022-10-19T15:56:46.954Z,0.70
2022-10-19T15:59:17.246Z,0.70
2022-10-19T16:01:52.428Z,0.63
2022-10-19T16:04:23.824Z,0.70
2022-10-19T16:06:52.417Z,0.80
2022-10-19T16:09:21.838Z,0.93
2022-10-19T16:11:56.492Z,0.90
2022-10-19T16:14:26.352Z,0.90
2022-10-19T16:16:59.542Z,0.80
2022-10-19T16:19:28.216Z,0.70
2022-10-19T16:21:56.777Z,1.00
2022-10-19T16:24:25.357Z,0.88
2022-10-19T16:26:53.921Z,1.23
2022-10-19T16:29:25.363Z,0.80
2022-10-19T16:31:58.113Z,0.82
2022-10-19T16:34:26.664Z,0.68
2022-10-19T16:36:55.276Z,0.80
2022-10-19T16:39:25.555Z,0.80
2022-10-19T16:41:54.432Z,0.90
2022-10-19T16:44:23.281Z,0.70
2022-10-19T16:46:51.876Z,0.90
2022-10-19T16:49:21.780Z,0.60
2022-10-19T16:51:53.214Z,0.95
2022-10-19T16:54:25.843Z,0.95
2022-10-19T16:56:55.617Z,0.70
2022-10-19T16:59:24.313Z,0.80
2022-10-19T17:01:53.857Z,0.98
2022-10-19T17:04:24.189Z,0.80
2022-10-19T17:06:52.852Z,0.82
2022-10-19T17:12:10.032Z,1.00
2022-10-19T17:14:40.274Z,0.77
2022-10-19T17:17:08.960Z,0.80
2022-10-19T17:19:39.274Z,0.95
2022-10-19T17:22:07.960Z,1.08
2022-10-19T17:24:37.577Z,1.30
2022-10-19T17:27:06.135Z,1.33
2022-10-19T17:29:34.725Z,1.33
2022-10-19T17:32:03.345Z,1.30
2022-10-19T17:34:31.914Z,1.05
2022-10-19T17:37:01.832Z,1.13
2022-10-19T17:39:30.415Z,1.10
2022-10-19T17:42:01.903Z,1.20
2022-10-19T17:44:31.482Z,2.22
2022-10-19T17:47:00.985Z,1.15
2022-10-19T17:49:30.028Z,1.30
2022-10-19T17:51:58.815Z,1.27
2022-10-19T17:54:28.829Z,1.58
2022-10-19T17:56:57.464Z,1.33
2022-10-19T17:59:34.987Z,1.25
2022-10-19T18:02:04.261Z,1.20
2022-10-19T18:04:32.875Z,1.10
2022-10-19T18:07:01.558Z,1.20
2022-10-19T18:09:31.472Z,1.40
2022-10-19T18:12:04.664Z,1.30
2022-10-19T18:14:35.929Z,3.00
2022-10-19T18:17:04.501Z,2.20
2022-10-19T18:19:33.516Z,2.67
2022-10-19T18:22:02.217Z,3.38
2022-10-19T18:24:33.002Z,4.10
2022-10-19T18:27:01.673Z,4.65
2022-10-19T18:29:30.393Z,2.72
2022-10-19T18:31:59.133Z,1.50
2022-10-19T18:34:28.517Z,1.63
2022-10-19T18:36:57.248Z,1.40
2022-10-19T18:39:25.975Z,1.65
2022-10-19T18:41:55.901Z,1.08
2022-10-19T18:44:27.921Z,1.60
2022-10-19T18:46:57.715Z,1.65
2022-10-19T18:49:26.460Z,1.27
2022-10-19T18:51:55.998Z,1.10
2022-10-19T18:54:26.195Z,1.20
2022-10-19T18:56:56.812Z,1.52
2022-10-19T19:01:54.421Z,1.13
2022-10-19T19:04:23.021Z,1.30
2022-10-19T19:06:51.609Z,1.30
2022-10-19T19:09:21.205Z,1.80
2022-10-19T19:11:50.184Z,2.00
2022-10-19T19:14:22.049Z,3.17
2022-10-19T19:16:50.683Z,3.30
2022-10-19T19:19:20.706Z,3.08
2022-10-19T19:21:49.929Z,3.97
2022-10-19T19:24:19.968Z,6.13
2022-10-19T19:26:50.121Z,4.72
2022-10-19T19:29:21.006Z,3.85
2022-10-19T19:31:49.962Z,4.63
2022-10-19T19:34:18.772Z,4.93
2022-10-19T19:36:48.684Z,4.13
2022-10-19T19:39:18.671Z,4.22
2022-10-19T19:41:47.577Z,4.25
2022-10-19T19:44:16.136Z,4.13
2022-10-19T19:46:46.120Z,4.15
2022-10-19T19:49:14.685Z,3.70
2022-10-19T19:51:43.254Z,5.18
2022-10-19T19:54:12.302Z,4.95
2022-10-19T19:56:42.334Z,4.35
2022-10-19T19:59:11.771Z,3.67
2022-10-19T20:01:40.744Z,3.28
2022-10-19T20:04:10.823Z,2.83
2022-10-19T20:06:40.148Z,2.45
2022-10-19T20:09:10.798Z,2.47
2022-10-19T20:11:42.631Z,2.10
2022-10-19T20:14:11.791Z,2.40
2022-10-19T20:16:40.381Z,2.20
2022-10-19T20:19:09.826Z,2.17
2022-10-19T20:21:39.989Z,2.38
2022-10-19T20:24:08.820Z,2.20
2022-10-19T20:26:37.697Z,1.98
2022-10-19T20:29:06.673Z,1.85
2022-10-19T20:31:39.546Z,1.90
2022-10-19T20:34:09.997Z,2.05
2022-10-19T20:36:39.944Z,1.98
2022-10-19T20:39:08.507Z,1.80
2022-10-19T20:41:37.451Z,1.50
2022-10-19T20:44:06.081Z,1.60
2022-10-19T20:46:35.037Z,1.48
2022-10-19T20:49:03.916Z,1.52
2022-10-19T20:51:33.325Z,1.67
2022-10-19T20:54:04.137Z,1.70
2022-10-19T20:56:33.894Z,1.52
2022-10-19T21:01:37.707Z,2.15
2022-10-19T21:04:07.053Z,3.40
2022-10-19T21:06:37.048Z,2.95
2022-10-19T21:09:07.499Z,3.42
2022-10-19T21:11:37.032Z,2.45
2022-10-19T21:14:06.596Z,2.00
2022-10-19T21:16:37.632Z,1.42
2022-10-19T21:19:06.933Z,1.50
2022-10-19T21:21:36.432Z,1.08
2022-10-19T21:24:06.269Z,1.23
2022-10-19T21:26:37.262Z,1.05
2022-10-19T21:29:09.421Z,1.20
2022-10-19T21:31:38.495Z,1.13
2022-10-19T21:34:07.441Z,1.05
2022-10-19T21:36:36.064Z,0.90
2022-10-19T21:39:04.767Z,0.90
2022-10-19T21:41:33.502Z,0.80
2022-10-19T21:44:03.457Z,0.70
2022-10-19T21:46:32.132Z,0.98
2022-10-19T21:49:00.781Z,0.73
2022-10-19T21:51:32.933Z,0.88
2022-10-19T21:54:01.544Z,0.90
2022-10-19T21:56:30.393Z,1.02
2022-10-19T21:58:59.196Z,0.80
2022-10-19T22:01:37.123Z,0.80
2022-10-19T22:04:09.656Z,0.70
2022-10-19T22:06:38.648Z,0.85
2022-10-19T22:09:08.393Z,0.70
2022-10-19T22:11:37.033Z,0.70
2022-10-19T22:14:06.408Z,0.70
2022-10-19T22:16:37.039Z,0.90
2022-10-19T22:19:06.429Z,0.70
2022-10-19T22:21:35.569Z,0.80
2022-10-19T22:24:05.318Z,0.63
2022-10-19T22:26:34.849Z,0.90
2022-10-19T22:29:03.936Z,0.70
2022-10-19T22:31:33.313Z,0.73
2022-10-19T22:34:03.805Z,0.60
2022-10-19T22:36:32.355Z,0.70
2022-10-19T22:39:01.063Z,0.60
2022-10-19T22:41:29.646Z,0.60
2022-10-19T22:43:58.217Z,0.60
2022-10-19T22:46:26.887Z,0.80
2022-10-19T22:48:55.484Z,0.70
2022-10-19T22:51:25.566Z,0.80
2022-10-19T22:53:54.213Z,0.80
2022-10-19T22:56:22.860Z,0.70
2022-10-19T22:58:51.600Z,0.80
2022-10-19T23:01:20.259Z,0.80
2022-10-19T23:03:48.884Z,0.80
2022-10-19T23:06:17.776Z,0.80
2022-10-19T23:08:47.742Z,0.60
2022-10-19T23:11:16.681Z,0.40
2022-10-19T23:13:45.284Z,0.70
2022-10-19T23:16:13.928Z,0.80
2022-10-19T23:18:43.089Z,0.52
2022-10-19T23:21:13.416Z,0.70
2022-10-19T23:23:42.386Z,0.90
2022-10-19T23:26:13.261Z,0.70
2022-10-19T23:28:42.992Z,0.82
2022-10-19T23:31:12.444Z,0.60
2022-10-19T23:33:41.360Z,0.70
2022-10-19T23:36:11.102Z,0.70
2022-10-19T23:38:39.673Z,0.68
2022-10-19T23:41:08.345Z,0.77
2022-10-19T23:43:38.272Z,0.60
2022-10-19T23:46:06.938Z,0.60
2022-10-19T23:48:35.844Z,0.70
2022-10-19T23:51:05.777Z,0.80
2022-10-19T23:53:38.406Z,0.70
2022-10-19T23:56:10.336Z,1.13
2022-10-19T23:58:40.585Z,0.70
